sensor_id;sensor_type;location;lat;lon;timestamp;temperature;humidity
53274;DHT22;39163;52.696;6.758;2022-10-31T07:29:29;8.40;99.90
53274;DHT22;39163;52.696;6.758;2022-10-31T07:31:55;8.40;99.90
53274;DHT22;39163;52.696;6.758;2022-10-31T07:34:24;8.40;99.90
53274;DHT22;39163;52.696;6.758;2022-10-31T07:36:52;8.50;99.90
53274;DHT22;39163;52.696;6.758;2022-10-31T07:39:18;8.60;99.90
53274;DHT22;39163;52.696;6.758;2022-10-31T07:41:44;8.60;99.90
53274;DHT22;39163;52.696;6.758;2022-10-31T07:44:09;8.70;99.90
53274;DHT22;39163;52.696;6.758;2022-10-31T07:46:37;8.80;99.90
53274;DHT22;39163;52.696;6.758;2022-10-31T07:49:03;8.90;99.90
53274;DHT22;39163;52.696;6.758;2022-10-31T07:51:29;9.00;99.90
53274;DHT22;39163;52.696;6.758;2022-10-31T07:53:55;9.10;99.90
53274;DHT22;39163;52.696;6.758;2022-10-31T07:56:21;9.10;99.90
53274;DHT22;39163;52.696;6.758;2022-10-31T07:58:46;9.30;99.90
53274;DHT22;39163;52.696;6.758;2022-10-31T08:01:15;9.40;99.90
53274;DHT22;39163;52.696;6.758;2022-10-31T08:03:41;9.60;99.90
53274;DHT22;39163;52.696;6.758;2022-10-31T08:06:08;9.80;99.90
53274;DHT22;39163;52.696;6.758;2022-10-31T08:08:37;10.00;99.90
53274;DHT22;39163;52.696;6.758;2022-10-31T08:11:05;10.20;99.90
53274;DHT22;39163;52.696;6.758;2022-10-31T08:13:33;10.30;99.90
53274;DHT22;39163;52.696;6.758;2022-10-31T08:16:02;10.40;99.90
53274;DHT22;39163;52.696;6.758;2022-10-31T08:18:29;10.50;99.90
53274;DHT22;39163;52.696;6.758;2022-10-31T08:20:55;10.60;99.90
53274;DHT22;39163;52.696;6.758;2022-10-31T08:23:24;10.70;99.90
53274;DHT22;39163;52.696;6.758;2022-10-31T08:25:50;10.70;99.90
53274;DHT22;39163;52.696;6.758;2022-10-31T08:28:18;10.80;99.90
53274;DHT22;39163;52.696;6.758;2022-10-31T08:30:47;11.00;99.90
53274;DHT22;39163;52.696;6.758;2022-10-31T08:33:17;11.20;99.90
53274;DHT22;39163;52.696;6.758;2022-10-31T08:35:45;11.40;99.90
53274;DHT22;39163;52.696;6.758;2022-10-31T08:38:18;11.70;99.90
53274;DHT22;39163;52.696;6.758;2022-10-31T08:40:48;12.10;99.90
53274;DHT22;39163;52.696;6.758;2022-10-31T08:43:17;12.30;99.90
53274;DHT22;39163;52.696;6.758;2022-10-31T08:45:50;12.50;99.90
53274;DHT22;39163;52.696;6.758;2022-10-31T08:48:19;12.80;99.90
53274;DHT22;39163;52.696;6.758;2022-10-31T08:50:56;13.10;99.90
53274;DHT22;39163;52.696;6.758;2022-10-31T08:53:27;13.50;99.90
53274;DHT22;39163;52.696;6.758;2022-10-31T08:56:19;13.70;99.90
53274;DHT22;39163;52.696;6.758;2022-10-31T08:58:52;13.90;99.90
53274;DHT22;39163;52.696;6.758;2022-10-31T09:02:12;14.00;99.90
53274;DHT22;39163;52.696;6.758;2022-10-31T10:59:09;15.70;99.90
53274;DHT22;39163;52.696;6.758;2022-10-31T11:08:37;15.90;99.90
53274;DHT22;39163;52.696;6.758;2022-10-31T11:14:54;16.00;99.90
53274;DHT22;39163;52.696;6.758;2022-10-31T11:21:50;16.00;99.90
53274;DHT22;39163;52.696;6.758;2022-10-31T11:24:36;16.00;99.90
53274;DHT22;39163;52.696;6.758;2022-10-31T11:27:29;15.80;99.90
53274;DHT22;39163;52.696;6.758;2022-10-31T11:30:29;15.80;99.90
53274;DHT22;39163;52.696;6.758;2022-10-31T11:33:32;15.80;99.90
53274;DHT22;39163;52.696;6.758;2022-10-31T11:36:36;15.80;99.90
53274;DHT22;39163;52.696;6.758;2022-10-31T11:39:28;15.90;99.90
53274;DHT22;39163;52.696;6.758;2022-10-31T11:42:18;15.80;99.90
53274;DHT22;39163;52.696;6.758;2022-10-31T11:48:20;16.00;99.90
53274;DHT22;39163;52.696;6.758;2022-10-31T11:51:19;16.00;99.90
53274;DHT22;39163;52.696;6.758;2022-10-31T11:57:08;16.00;99.90
53274;DHT22;39163;52.696;6.758;2022-10-31T11:59:58;16.10;99.90
53274;DHT22;39163;52.696;6.758;2022-10-31T12:22:43;16.20;99.90
53274;DHT22;39163;52.696;6.758;2022-10-31T12:43:49;17.30;99.90
53274;DHT22;39163;52.696;6.758;2022-10-31T12:49:39;17.20;99.90
53274;DHT22;39163;52.696;6.758;2022-10-31T12:53:00;17.10;99.90
53274;DHT22;39163;52.696;6.758;2022-10-31T12:58:56;17.30;99.90
53274;DHT22;39163;52.696;6.758;2022-10-31T13:01:45;17.50;99.90
53274;DHT22;39163;52.696;6.758;2022-10-31T13:06:48;17.60;99.90
53274;DHT22;39163;52.696;6.758;2022-10-31T13:09:25;17.50;99.90
53274;DHT22;39163;52.696;6.758;2022-10-31T13:11:58;17.50;99.90
53274;DHT22;39163;52.696;6.758;2022-10-31T13:14:47;17.30;99.90
53274;DHT22;39163;52.696;6.758;2022-10-31T13:17:31;17.20;99.90
53274;DHT22;39163;52.696;6.758;2022-10-31T13:20:23;17.10;99.90
53274;DHT22;39163;52.696;6.758;2022-10-31T13:23:00;16.90;99.90
53274;DHT22;39163;52.696;6.758;2022-10-31T13:25:56;16.80;99.90
53274;DHT22;39163;52.696;6.758;2022-10-31T13:29:02;16.80;99.90
53274;DHT22;39163;52.696;6.758;2022-10-31T13:44:32;16.70;99.90
53274;DHT22;39163;52.696;6.758;2022-10-31T13:47:17;16.70;99.90
53274;DHT22;39163;52.696;6.758;2022-10-31T13:50:02;16.70;99.90
53274;DHT22;39163;52.696;6.758;2022-10-31T13:52:33;16.60;99.90
53274;DHT22;39163;52.696;6.758;2022-10-31T13:55:02;16.60;99.90
53274;DHT22;39163;52.696;6.758;2022-10-31T13:57:44;16.50;99.90
53274;DHT22;39163;52.696;6.758;2022-10-31T14:02:51;16.60;99.90
53274;DHT22;39163;52.696;6.758;2022-10-31T14:05:31;16.70;99.90
53274;DHT22;39163;52.696;6.758;2022-10-31T14:08:02;16.70;99.90
53274;DHT22;39163;52.696;6.758;2022-10-31T14:10:45;16.80;99.90
53274;DHT22;39163;52.696;6.758;2022-10-31T14:13:32;16.80;99.90
53274;DHT22;39163;52.696;6.758;2022-10-31T14:16:30;16.80;99.90
53274;DHT22;39163;52.696;6.758;2022-10-31T14:19:23;16.80;99.90
53274;DHT22;39163;52.696;6.758;2022-10-31T14:22:20;16.70;99.90
53274;DHT22;39163;52.696;6.758;2022-10-31T14:24:51;16.70;99.90
53274;DHT22;39163;52.696;6.758;2022-10-31T14:29:56;16.60;99.90
53274;DHT22;39163;52.696;6.758;2022-10-31T14:32:59;16.60;99.90
53274;DHT22;39163;52.696;6.758;2022-10-31T14:36:00;16.50;99.90
53274;DHT22;39163;52.696;6.758;2022-10-31T14:39:04;16.50;99.90
53274;DHT22;39163;52.696;6.758;2022-10-31T14:50:48;16.20;99.90
53274;DHT22;39163;52.696;6.758;2022-10-31T14:56:00;16.10;99.90
53274;DHT22;39163;52.696;6.758;2022-10-31T14:58:48;16.10;99.90
53274;DHT22;39163;52.696;6.758;2022-10-31T15:01:49;16.00;99.90
53274;DHT22;39163;52.696;6.758;2022-10-31T15:07:34;15.90;99.90
53274;DHT22;39163;52.696;6.758;2022-10-31T15:10:31;15.90;99.90
53274;DHT22;39163;52.696;6.758;2022-10-31T15:16:22;15.80;99.90
53274;DHT22;39163;52.696;6.758;2022-10-31T15:19:32;15.80;99.90
53274;DHT22;39163;52.696;6.758;2022-10-31T15:22:05;15.70;99.90
53274;DHT22;39163;52.696;6.758;2022-10-31T15:25:33;15.70;99.90
53274;DHT22;39163;52.696;6.758;2022-10-31T15:28:27;15.60;99.90
53274;DHT22;39163;52.696;6.758;2022-10-31T15:31:12;15.60;99.90
53274;DHT22;39163;52.696;6.758;2022-10-31T15:37:03;15.50;99.90
53274;DHT22;39163;52.696;6.758;2022-10-31T16:29:43;14.70;99.90
53274;DHT22;39163;52.696;6.758;2022-10-31T16:33:35;14.70;99.90
53274;DHT22;39163;52.696;6.758;2022-10-31T16:40:48;14.70;99.90
53274;DHT22;39163;52.696;6.758;2022-10-31T21:59:27;13.40;99.90
53274;DHT22;39163;52.696;6.758;2022-10-31T22:02:07;13.40;99.90
53274;DHT22;39163;52.696;6.758;2022-10-31T22:04:47;13.50;99.90
53274;DHT22;39163;52.696;6.758;2022-10-31T22:09:56;13.50;99.90
53274;DHT22;39163;52.696;6.758;2022-10-31T22:41:38;13.40;99.90
53274;DHT22;39163;52.696;6.758;2022-10-31T22:44:30;13.40;99.90
53274;DHT22;39163;52.696;6.758;2022-10-31T22:50:17;13.30;99.90
53274;DHT22;39163;52.696;6.758;2022-10-31T23:15:21;13.40;99.90
